createdAt,value
2022-08-17T00:05:00.817Z,11.23
2022-08-17T00:10:04.284Z,12.70
2022-08-17T00:15:10.510Z,9.07
2022-08-17T00:20:16.206Z,8.88
2022-08-17T00:25:22.100Z,10.00
2022-08-17T00:30:25.744Z,10.88
2022-08-17T00:35:30.606Z,13.30
2022-08-17T00:40:40.592Z,14.35
2022-08-17T00:45:49.102Z,13.75
2022-08-17T00:50:59.432Z,15.35
2022-08-17T00:56:06.065Z,11.32
2022-08-17T01:01:11.522Z,13.95
2022-08-17T01:06:16.465Z,15.45
2022-08-17T01:11:20.971Z,12.10
2022-08-17T01:16:26.804Z,11.98
2022-08-17T01:21:39.479Z,11.88
2022-08-17T01:26:45.360Z,18.17
2022-08-17T01:31:53.680Z,15.32
2022-08-17T01:36:57.291Z,10.25
2022-08-17T01:42:07.150Z,14.38
2022-08-17T01:47:10.798Z,14.98
2022-08-17T01:52:15.428Z,12.15
2022-08-17T01:57:20.149Z,10.82
2022-08-17T02:02:31.412Z,11.35
2022-08-17T02:07:59.442Z,14.43
2022-08-17T02:13:02.157Z,14.43
2022-08-17T02:18:07.401Z,13.23
2022-08-17T02:23:12.984Z,15.60
2022-08-17T02:28:18.814Z,14.02
2022-08-17T02:33:22.266Z,14.10
2022-08-17T02:38:25.896Z,12.82
2022-08-17T02:43:30.787Z,13.60
2022-08-17T02:48:34.282Z,12.45
2022-08-17T02:53:37.644Z,13.98
2022-08-17T02:58:42.368Z,13.32
2022-08-17T03:03:46.016Z,16.33
2022-08-17T03:08:49.788Z,13.77
2022-08-17T03:13:54.968Z,11.68
2022-08-17T03:18:58.792Z,12.57
2022-08-17T03:24:02.160Z,12.13
2022-08-17T03:29:18.910Z,10.27
2022-08-17T03:34:24.371Z,13.07
2022-08-17T03:39:27.738Z,11.20
2022-08-17T03:44:33.031Z,16.13
2022-08-17T03:49:56.341Z,14.45
2022-08-17T03:55:22.843Z,12.23
2022-08-17T04:00:45.458Z,12.95
2022-08-17T04:05:48.810Z,12.05
2022-08-17T04:10:52.221Z,15.88
2022-08-17T04:15:57.573Z,16.65
2022-08-17T04:21:01.069Z,15.43
2022-08-17T04:26:04.797Z,11.85
2022-08-17T04:31:10.199Z,16.08
2022-08-17T04:36:16.415Z,14.52
2022-08-17T04:41:37.513Z,12.70
2022-08-17T04:46:42.573Z,14.80
2022-08-17T04:51:54.510Z,12.52
2022-08-17T04:56:59.733Z,16.02
2022-08-17T05:02:04.450Z,18.65
2022-08-17T05:07:07.875Z,13.00
2022-08-17T05:12:11.252Z,17.20
2022-08-17T05:17:16.409Z,14.63
2022-08-17T05:22:19.921Z,22.85
2022-08-17T05:27:23.644Z,14.30
2022-08-17T05:32:39.362Z,15.75
2022-08-17T05:37:43.759Z,14.75
2022-08-17T05:42:47.737Z,12.85
2022-08-17T05:47:52.592Z,11.80
2022-08-17T05:53:03.920Z,15.60
2022-08-17T05:58:19.500Z,11.53
2022-08-17T06:03:48.991Z,10.13
2022-08-17T06:08:57.761Z,14.60
2022-08-17T06:14:20.068Z,10.95
2022-08-17T06:19:32.534Z,16.40
2022-08-17T06:24:40.130Z,12.55
2022-08-17T06:29:51.805Z,12.80
2022-08-17T06:34:57.457Z,12.02
2022-08-17T06:40:15.599Z,14.90
2022-08-17T06:45:22.703Z,15.13
2022-08-17T06:50:38.057Z,11.40
2022-08-17T06:55:46.783Z,11.75
2022-08-17T07:00:58.496Z,14.52
2022-08-17T07:06:12.133Z,13.45
2022-08-17T07:11:21.163Z,8.63
2022-08-17T07:16:31.681Z,11.60
2022-08-17T07:21:46.098Z,14.80
2022-08-17T07:27:04.044Z,15.45
2022-08-17T07:32:09.241Z,11.48
2022-08-17T07:37:19.916Z,14.27
2022-08-17T07:42:23.994Z,13.05
2022-08-17T07:47:53.219Z,11.60
2022-08-17T07:52:59.256Z,11.35
2022-08-17T07:58:03.674Z,10.65
2022-08-17T08:03:23.716Z,8.82
2022-08-17T08:08:38.559Z,12.13
2022-08-17T08:13:45.806Z,16.65
2022-08-17T08:18:55.382Z,14.38
2022-08-17T08:24:17.039Z,13.05
2022-08-17T08:29:28.810Z,15.10
2022-08-17T08:35:02.703Z,10.05
2022-08-17T08:40:21.397Z,14.63
2022-08-17T08:45:30.615Z,11.50
2022-08-17T08:50:42.962Z,9.15
2022-08-17T08:55:58.696Z,13.32
2022-08-17T09:01:08.836Z,7.97
2022-08-17T09:06:39.735Z,12.30
2022-08-17T09:12:02.140Z,13.25
2022-08-17T09:17:12.986Z,10.38
2022-08-17T09:22:31.636Z,12.18
2022-08-17T09:27:49.414Z,12.00
2022-08-17T09:32:57.916Z,14.70
2022-08-17T09:38:06.471Z,8.73
2022-08-17T09:43:24.985Z,9.88
2022-08-17T09:48:33.366Z,8.05
2022-08-17T09:53:38.691Z,8.52
2022-08-17T09:58:57.511Z,8.98
2022-08-17T10:04:24.847Z,8.40
2022-08-17T10:09:43.153Z,9.05
2022-08-17T10:15:08.170Z,6.38
2022-08-17T10:20:17.957Z,11.18
2022-08-17T10:25:54.094Z,6.53
2022-08-17T10:31:33.237Z,7.85
2022-08-17T10:36:46.359Z,6.30
2022-08-17T10:41:54.112Z,8.52
2022-08-17T10:47:08.530Z,9.40
2022-08-17T10:52:48.784Z,6.50
2022-08-17T10:57:54.921Z,8.25
2022-08-17T11:03:00.775Z,8.20
2022-08-17T11:08:37.780Z,7.18
2022-08-17T11:13:52.329Z,9.18
2022-08-17T11:19:23.666Z,6.00
2022-08-17T11:24:34.881Z,7.33
2022-08-17T11:29:52.651Z,9.20
2022-08-17T11:35:12.058Z,8.55
2022-08-17T11:40:34.591Z,6.80
2022-08-17T11:45:53.597Z,6.47
2022-08-17T11:51:24.262Z,8.50
2022-08-17T11:56:37.480Z,6.90
2022-08-17T12:01:55.860Z,5.60
2022-08-17T12:07:10.201Z,6.72
2022-08-17T12:12:17.639Z,7.90
2022-08-17T12:17:40.118Z,9.82
2022-08-17T12:22:56.428Z,6.35
2022-08-17T12:28:06.738Z,6.80
2022-08-17T12:33:25.350Z,7.70
2022-08-17T12:43:38.982Z,6.43
2022-08-17T12:48:55.087Z,5.65
2022-08-17T12:54:05.129Z,8.35
2022-08-17T12:59:12.028Z,5.45
2022-08-17T13:04:17.580Z,6.13
2022-08-17T13:09:36.038Z,5.07
2022-08-17T13:14:47.238Z,8.00
2022-08-17T13:19:52.645Z,6.10
2022-08-17T13:25:03.931Z,7.07
2022-08-17T13:30:13.042Z,5.22
2022-08-17T13:35:44.267Z,7.38
2022-08-17T13:40:55.294Z,8.13
2022-08-17T13:46:10.491Z,8.00
2022-08-17T13:51:18.654Z,5.72
2022-08-17T13:56:39.486Z,5.15
2022-08-17T14:01:51.059Z,5.78
2022-08-17T14:07:00.564Z,6.50
2022-08-17T14:12:07.623Z,7.07
2022-08-17T14:17:11.713Z,6.53
2022-08-17T14:22:19.921Z,5.78
2022-08-17T14:27:27.980Z,5.25
2022-08-17T14:32:33.342Z,5.57
2022-08-17T14:37:36.727Z,6.03
2022-08-17T14:42:46.047Z,6.53
2022-08-17T14:52:52.774Z,4.78
2022-08-17T14:57:57.581Z,4.40
2022-08-17T15:03:02.373Z,5.20
2022-08-17T15:08:06.833Z,4.97
2022-08-17T15:13:23.028Z,7.35
2022-08-17T15:18:26.675Z,7.57
2022-08-17T15:23:29.983Z,6.45
2022-08-17T15:28:34.725Z,6.25
2022-08-17T15:33:38.347Z,6.30
2022-08-17T15:38:41.980Z,4.15
2022-08-17T15:43:50.948Z,6.53
2022-08-17T15:48:59.624Z,4.53
2022-08-17T15:54:22.438Z,6.18
2022-08-17T15:59:30.326Z,4.57
2022-08-17T16:04:33.751Z,5.13
2022-08-17T16:09:38.443Z,4.60
2022-08-17T16:14:43.712Z,7.50
2022-08-17T16:19:47.420Z,6.85
2022-08-17T16:24:57.483Z,4.65
2022-08-17T16:30:02.787Z,4.63
2022-08-17T16:35:10.677Z,5.50
2022-08-17T16:40:15.656Z,5.38
2022-08-17T16:45:22.319Z,4.50
2022-08-17T16:50:26.298Z,7.78
2022-08-17T16:55:29.720Z,4.05
2022-08-17T17:00:34.943Z,4.32
2022-08-17T17:05:57.736Z,5.30
2022-08-17T17:11:11.532Z,6.13
2022-08-17T17:16:21.629Z,6.75
2022-08-17T17:21:33.546Z,5.05
2022-08-17T17:26:57.349Z,4.10
2022-08-17T17:32:14.032Z,3.42
2022-08-17T17:37:27.501Z,8.25
2022-08-17T17:42:33.116Z,7.93
2022-08-17T17:47:38.390Z,7.50
2022-08-17T17:52:50.537Z,11.38
2022-08-17T17:58:03.755Z,13.20
2022-08-17T18:03:24.200Z,12.60
2022-08-17T18:08:42.474Z,13.45
2022-08-17T18:14:03.843Z,14.75
2022-08-17T18:19:13.432Z,13.15
2022-08-17T18:24:31.200Z,12.57
2022-08-17T18:29:42.332Z,9.07
2022-08-17T18:34:49.738Z,9.32
2022-08-17T18:39:53.396Z,12.23
2022-08-17T18:44:57.340Z,8.57
2022-08-17T18:50:22.085Z,10.65
2022-08-17T18:55:29.405Z,8.48
2022-08-17T19:00:37.194Z,7.50
2022-08-17T19:05:45.274Z,8.98
2022-08-17T19:10:51.687Z,9.65
2022-08-17T19:16:14.443Z,9.70
2022-08-17T19:21:24.262Z,9.75
2022-08-17T19:26:53.977Z,9.82
2022-08-17T19:31:58.718Z,12.60
2022-08-17T19:37:08.871Z,12.32
2022-08-17T19:42:27.899Z,7.47
2022-08-17T19:47:55.394Z,11.60
2022-08-17T19:53:08.459Z,16.75
2022-08-17T19:58:21.045Z,12.45
2022-08-17T20:03:30.654Z,13.07
2022-08-17T20:08:40.191Z,11.35
2022-08-17T20:13:47.458Z,11.52
2022-08-17T20:18:59.217Z,10.40
2022-08-17T20:24:22.612Z,10.23
2022-08-17T20:29:39.824Z,8.68
2022-08-17T20:34:47.575Z,10.05
2022-08-17T20:45:59.814Z,9.97
2022-08-17T20:51:18.565Z,13.23
2022-08-17T20:56:57.344Z,16.33
2022-08-17T21:02:18.377Z,16.73
2022-08-17T21:07:33.037Z,12.65
2022-08-17T21:12:51.606Z,12.38
2022-08-17T21:18:06.574Z,12.82
2022-08-17T21:23:36.069Z,12.65
2022-08-17T21:28:59.983Z,10.48
2022-08-17T21:34:30.808Z,9.85
2022-08-17T21:39:41.767Z,9.50
2022-08-17T21:44:49.870Z,12.57
2022-08-17T21:49:53.880Z,14.85
2022-08-17T21:55:02.455Z,13.98
2022-08-17T22:00:15.809Z,14.48
2022-08-17T22:05:30.124Z,11.75
2022-08-17T22:10:41.265Z,12.07
2022-08-17T22:15:46.991Z,12.15
2022-08-17T22:20:53.291Z,12.85
2022-08-17T22:26:05.224Z,16.13
2022-08-17T22:31:15.727Z,17.77
2022-08-17T22:36:26.381Z,11.77
2022-08-17T22:41:44.531Z,11.57
2022-08-17T22:46:56.371Z,11.95
2022-08-17T22:57:32.727Z,14.88
2022-08-17T23:02:53.011Z,18.02
2022-08-17T23:07:59.535Z,12.45
2022-08-17T23:13:04.753Z,14.45
2022-08-17T23:18:08.549Z,12.90
2022-08-17T23:23:14.721Z,11.45
2022-08-17T23:28:19.818Z,11.13
2022-08-17T23:33:30.972Z,14.82
2022-08-17T23:38:34.300Z,10.93
2022-08-17T23:48:57.108Z,20.50
2022-08-17T23:54:08.334Z,13.88
